createdAt,value
2023-05-19T00:01:57.416Z,12.93
2023-05-19T00:04:25.112Z,12.55
2023-05-19T00:06:54.446Z,12.49
2023-05-19T00:09:22.912Z,12.32
2023-05-19T00:11:50.841Z,12.18
2023-05-19T00:14:18.744Z,12.26
2023-05-19T00:16:46.496Z,12.23
2023-05-19T00:19:14.830Z,12.19
2023-05-19T00:21:41.990Z,12.21
2023-05-19T00:24:10.043Z,12.16
2023-05-19T00:26:37.046Z,12.10
2023-05-19T00:29:22.848Z,12.03
2023-05-19T00:31:50.470Z,12.01
2023-05-19T00:34:19.664Z,12.02
2023-05-19T00:36:46.782Z,11.98
2023-05-19T00:39:14.484Z,12.05
2023-05-19T00:41:42.007Z,12.05
2023-05-19T00:44:09.019Z,11.99
2023-05-19T00:46:36.144Z,12.02
2023-05-19T00:49:03.022Z,12.02
2023-05-19T00:51:44.227Z,12.09
2023-05-19T00:54:11.900Z,12.12
2023-05-19T00:56:39.572Z,12.16
2023-05-19T00:59:07.310Z,12.17
2023-05-19T01:01:34.358Z,12.13
2023-05-19T01:04:01.686Z,12.17
2023-05-19T01:06:29.371Z,12.16
2023-05-19T01:08:57.589Z,12.15
2023-05-19T01:11:24.472Z,12.17
2023-05-19T01:13:51.697Z,12.19
2023-05-19T01:16:29.532Z,12.31
2023-05-19T01:19:10.568Z,12.36
2023-05-19T01:22:09.095Z,12.41
2023-05-19T01:25:07.861Z,12.29
2023-05-19T01:28:15.963Z,12.23
2023-05-19T01:30:52.485Z,12.15
2023-05-19T01:33:23.405Z,12.06
2023-05-19T01:35:53.712Z,12.05
2023-05-19T01:38:22.389Z,12.12
2023-05-19T01:40:51.403Z,11.79
2023-05-19T01:43:23.950Z,11.88
2023-05-19T01:45:53.325Z,11.90
2023-05-19T01:48:23.129Z,11.95
2023-05-19T01:50:50.455Z,11.98
2023-05-19T01:53:17.440Z,11.74
2023-05-19T01:55:52.197Z,11.75
2023-05-19T01:58:33.197Z,11.77
2023-05-19T02:01:16.478Z,11.83
2023-05-19T02:04:06.886Z,11.87
2023-05-19T02:06:45.975Z,11.88
2023-05-19T02:09:20.749Z,11.90
2023-05-19T02:11:55.884Z,11.85
2023-05-19T02:14:33.606Z,11.85
2023-05-19T02:17:05.171Z,11.83
2023-05-19T02:19:34.268Z,11.79
2023-05-19T02:22:01.251Z,11.85
2023-05-19T02:24:28.150Z,11.85
2023-05-19T02:29:50.829Z,11.86
2023-05-19T02:32:20.393Z,11.84
2023-05-19T02:34:47.974Z,11.84
2023-05-19T02:37:16.588Z,11.88
2023-05-19T02:39:44.580Z,11.93
2023-05-19T02:42:12.526Z,11.97
2023-05-19T02:44:39.670Z,11.97
2023-05-19T02:47:06.690Z,11.98
2023-05-19T02:49:35.058Z,11.96
2023-05-19T02:52:02.265Z,11.94
2023-05-19T02:54:29.346Z,11.92
2023-05-19T02:56:56.463Z,11.88
2023-05-19T02:59:25.472Z,11.89
2023-05-19T03:01:56.445Z,11.92
2023-05-19T03:04:23.764Z,11.89
2023-05-19T03:06:52.657Z,11.83
2023-05-19T03:13:02.904Z,11.82
2023-05-19T03:15:57.793Z,11.81
2023-05-19T03:18:26.386Z,11.77
2023-05-19T03:20:54.539Z,11.75
2023-05-19T03:23:22.882Z,11.76
2023-05-19T03:25:49.907Z,11.71
2023-05-19T03:28:16.820Z,11.71
2023-05-19T03:30:43.821Z,11.67
2023-05-19T03:33:18.704Z,11.65
2023-05-19T03:35:45.979Z,11.64
2023-05-19T03:38:13.615Z,11.58
2023-05-19T03:40:48.606Z,11.47
2023-05-19T03:43:15.573Z,11.44
2023-05-19T03:45:48.061Z,11.40
2023-05-19T03:48:33.428Z,11.40
2023-05-19T03:51:20.806Z,11.43
2023-05-19T03:53:50.617Z,11.44
2023-05-19T03:56:20.487Z,11.35
2023-05-19T03:58:47.633Z,11.37
2023-05-19T04:01:16.067Z,11.36
2023-05-19T04:03:43.029Z,11.38
2023-05-19T04:06:10.095Z,11.38
2023-05-19T04:08:37.002Z,11.37
2023-05-19T04:11:04.262Z,11.40
2023-05-19T04:13:33.712Z,11.39
2023-05-19T04:16:00.889Z,11.41
2023-05-19T04:18:29.242Z,11.38
2023-05-19T04:20:56.452Z,11.41
2023-05-19T04:23:23.460Z,11.43
2023-05-19T04:25:51.308Z,11.49
2023-05-19T04:28:18.295Z,11.53
2023-05-19T04:30:46.850Z,11.54
2023-05-19T04:33:14.731Z,11.55
2023-05-19T04:35:42.979Z,11.60
2023-05-19T04:38:11.677Z,11.64
2023-05-19T04:40:39.014Z,11.69
2023-05-19T04:43:06.629Z,11.72
2023-05-19T04:45:33.779Z,11.75
2023-05-19T04:48:04.514Z,11.89
2023-05-19T04:50:31.701Z,12.05
2023-05-19T04:52:59.431Z,12.30
2023-05-19T04:55:28.723Z,12.58
2023-05-19T04:57:57.481Z,12.88
2023-05-19T05:00:24.885Z,13.25
2023-05-19T05:03:05.942Z,13.66
2023-05-19T05:05:35.369Z,13.78
2023-05-19T05:08:02.703Z,14.23
2023-05-19T05:10:34.429Z,14.49
2023-05-19T05:13:02.674Z,14.79
2023-05-19T05:15:31.065Z,15.11
2023-05-19T05:18:02.100Z,14.81
2023-05-19T05:20:34.179Z,14.72
2023-05-19T05:23:02.450Z,14.59
2023-05-19T05:25:32.398Z,15.23
2023-05-19T05:27:59.587Z,15.83
2023-05-19T05:30:26.623Z,16.00
2023-05-19T05:32:54.149Z,15.68
2023-05-19T05:35:33.984Z,15.64
2023-05-19T05:38:01.257Z,15.31
2023-05-19T05:40:29.838Z,14.97
2023-05-19T05:42:57.158Z,14.85
2023-05-19T05:45:26.045Z,14.88
2023-05-19T05:47:54.940Z,14.96
2023-05-19T05:50:23.915Z,15.02
2023-05-19T05:52:56.912Z,15.37
2023-05-19T05:55:25.943Z,16.12
2023-05-19T05:57:52.902Z,17.07
2023-05-19T06:00:21.499Z,17.43
2023-05-19T06:02:52.573Z,18.13
2023-05-19T06:05:20.561Z,18.77
2023-05-19T06:07:48.740Z,19.55
2023-05-19T06:10:23.746Z,19.86
2023-05-19T06:12:52.984Z,19.95
2023-05-19T06:15:23.441Z,20.01
2023-05-19T06:18:07.567Z,20.59
2023-05-19T06:20:34.681Z,20.97
2023-05-19T06:23:03.300Z,20.10
2023-05-19T06:25:31.786Z,19.90
2023-05-19T06:27:58.887Z,20.51
2023-05-19T06:30:25.936Z,21.02
2023-05-19T06:33:12.046Z,20.87
2023-05-19T06:35:39.030Z,21.51
2023-05-19T06:38:06.456Z,21.13
2023-05-19T06:40:35.995Z,18.64
2023-05-19T06:43:03.687Z,18.45
2023-05-19T06:45:53.493Z,19.37
2023-05-19T06:48:22.501Z,19.83
2023-05-19T06:50:49.882Z,20.86
2023-05-19T06:53:19.944Z,21.38
2023-05-19T06:55:58.139Z,22.28
2023-05-19T06:58:27.830Z,21.92
2023-05-19T07:00:55.434Z,21.14
2023-05-19T07:03:24.762Z,20.38
2023-05-19T07:05:55.512Z,19.48
2023-05-19T07:08:22.725Z,19.43
2023-05-19T07:10:51.108Z,18.86
2023-05-19T07:13:17.970Z,18.63
2023-05-19T07:15:45.966Z,18.60
2023-05-19T07:18:13.791Z,18.11
2023-05-19T07:20:41.686Z,17.81
2023-05-19T07:23:09.451Z,17.89
2023-05-19T07:25:36.937Z,17.96
2023-05-19T07:28:06.263Z,17.30
2023-05-19T07:30:33.953Z,17.34
2023-05-19T07:33:00.995Z,17.11
2023-05-19T07:35:28.939Z,16.53
2023-05-19T07:37:55.948Z,16.77
2023-05-19T07:40:22.942Z,17.24
2023-05-19T07:42:50.208Z,17.71
2023-05-19T07:45:18.845Z,17.98
2023-05-19T07:47:45.897Z,17.88
2023-05-19T07:50:12.839Z,17.97
2023-05-19T07:52:40.083Z,17.92
2023-05-19T07:55:07.226Z,18.05
2023-05-19T07:57:34.169Z,18.42
2023-05-19T08:00:01.083Z,18.56
2023-05-19T08:02:29.470Z,18.42
2023-05-19T08:04:56.537Z,17.86
2023-05-19T08:07:23.630Z,17.77
2023-05-19T08:09:50.549Z,17.69
2023-05-19T08:12:17.409Z,17.69
2023-05-19T08:14:44.763Z,17.56
2023-05-19T08:17:11.721Z,17.55
2023-05-19T08:19:40.004Z,17.59
2023-05-19T08:22:08.076Z,17.49
2023-05-19T08:24:36.877Z,17.49
2023-05-19T08:27:04.639Z,17.46
2023-05-19T08:29:32.138Z,17.62
2023-05-19T08:31:59.044Z,17.19
2023-05-19T08:34:27.219Z,17.38
2023-05-19T08:36:56.217Z,17.52
2023-05-19T08:39:23.113Z,17.90
2023-05-19T08:41:52.600Z,16.99
2023-05-19T08:44:20.068Z,16.95
2023-05-19T08:46:48.136Z,17.23
2023-05-19T08:49:25.488Z,17.37
2023-05-19T08:52:06.247Z,17.38
2023-05-19T08:54:43.269Z,17.30
2023-05-19T08:57:10.935Z,17.42
2023-05-19T08:59:40.850Z,16.81
2023-05-19T09:02:13.191Z,16.51
2023-05-19T09:04:41.212Z,16.24
2023-05-19T09:07:09.668Z,16.12
2023-05-19T09:09:36.715Z,15.96
2023-05-19T09:12:04.564Z,15.97
2023-05-19T09:14:32.994Z,16.40
2023-05-19T09:17:02.060Z,16.68
2023-05-19T09:19:29.518Z,16.95
2023-05-19T09:22:00.288Z,17.01
2023-05-19T09:24:29.036Z,16.42
2023-05-19T09:26:57.732Z,16.06
2023-05-19T09:29:26.173Z,15.91
2023-05-19T09:31:55.434Z,15.85
2023-05-19T09:34:22.567Z,15.81
2023-05-19T09:36:49.748Z,16.01
2023-05-19T09:39:17.745Z,16.27
2023-05-19T09:41:46.591Z,16.08
2023-05-19T09:44:21.182Z,16.10
2023-05-19T09:46:49.748Z,16.03
2023-05-19T09:49:21.412Z,16.40
2023-05-19T09:51:53.970Z,16.80
2023-05-19T09:54:22.569Z,16.57
2023-05-19T09:56:57.706Z,16.75
2023-05-19T09:59:25.794Z,16.68
2023-05-19T10:01:55.220Z,16.38
2023-05-19T10:04:23.638Z,16.31
2023-05-19T10:06:51.110Z,16.43
2023-05-19T10:09:18.560Z,16.08
2023-05-19T10:11:46.154Z,16.55
2023-05-19T10:14:15.872Z,16.43
2023-05-19T10:16:44.381Z,16.24
2023-05-19T10:19:13.972Z,15.95
2023-05-19T10:22:19.070Z,16.15
2023-05-19T10:24:46.319Z,16.12
2023-05-19T10:27:19.948Z,15.94
2023-05-19T10:29:52.253Z,16.22
2023-05-19T10:32:26.697Z,16.56
2023-05-19T10:35:28.288Z,16.56
2023-05-19T10:38:09.536Z,16.76
2023-05-19T10:40:53.343Z,16.45
2023-05-19T10:43:37.142Z,16.05
2023-05-19T10:46:06.309Z,16.27
2023-05-19T10:48:35.227Z,16.43
2023-05-19T10:51:03.100Z,16.74
2023-05-19T10:53:32.070Z,17.11
2023-05-19T10:56:02.324Z,16.56
2023-05-19T10:58:38.683Z,16.47
2023-05-19T11:01:14.214Z,16.16
2023-05-19T11:03:49.973Z,16.11
2023-05-19T11:06:35.081Z,15.77
2023-05-19T11:09:13.449Z,15.87
2023-05-19T11:11:48.136Z,16.08
2023-05-19T11:14:18.311Z,16.14
2023-05-19T11:16:50.203Z,16.09
2023-05-19T11:19:27.479Z,15.94
2023-05-19T11:21:55.594Z,16.03
2023-05-19T11:24:40.333Z,16.20
2023-05-19T11:27:24.543Z,16.28
2023-05-19T11:29:52.370Z,16.67
2023-05-19T11:32:22.976Z,17.02
2023-05-19T11:34:50.284Z,17.09
2023-05-19T11:37:17.535Z,17.24
2023-05-19T11:39:46.891Z,17.08
2023-05-19T11:42:16.524Z,16.12
2023-05-19T11:44:44.391Z,16.27
2023-05-19T11:47:24.974Z,16.74
2023-05-19T11:49:52.274Z,16.74
2023-05-19T11:52:22.986Z,16.45
2023-05-19T11:54:50.662Z,16.94
2023-05-19T11:58:35.700Z,17.26
2023-05-19T12:01:04.506Z,16.68
2023-05-19T12:03:32.874Z,17.13
2023-05-19T12:06:00.240Z,16.71
2023-05-19T12:08:27.260Z,17.21
2023-05-19T12:10:54.321Z,17.36
2023-05-19T12:13:22.751Z,16.92
2023-05-19T12:15:51.076Z,17.21
2023-05-19T12:18:19.318Z,17.31
2023-05-19T12:20:47.867Z,16.89
2023-05-19T12:23:14.872Z,17.34
2023-05-19T12:26:34.993Z,17.30
2023-05-19T12:29:04.410Z,17.17
2023-05-19T12:31:31.405Z,16.62
2023-05-19T12:33:58.631Z,17.02
2023-05-19T12:36:27.238Z,17.20
2023-05-19T12:38:56.414Z,17.10
2023-05-19T12:41:50.513Z,17.13
2023-05-19T12:44:17.742Z,17.32
2023-05-19T12:46:44.776Z,17.09
2023-05-19T12:49:12.050Z,17.21
2023-05-19T12:51:40.571Z,17.40
2023-05-19T12:54:07.749Z,17.06
2023-05-19T12:56:34.998Z,16.72
2023-05-19T12:59:01.941Z,16.61
2023-05-19T13:03:56.935Z,16.26
2023-05-19T13:06:23.920Z,16.35
2023-05-19T13:08:52.171Z,16.49
2023-05-19T13:11:19.402Z,16.40
2023-05-19T13:13:46.255Z,16.30
2023-05-19T13:16:35.648Z,16.30
2023-05-19T13:19:03.276Z,16.46
2023-05-19T13:21:30.233Z,16.68
2023-05-19T13:23:58.719Z,16.92
2023-05-19T13:26:26.777Z,16.27
2023-05-19T13:28:53.716Z,16.49
2023-05-19T13:31:49.405Z,16.49
2023-05-19T13:34:16.428Z,16.51
2023-05-19T13:36:43.409Z,16.37
2023-05-19T13:39:37.736Z,16.24
2023-05-19T13:42:05.316Z,16.46
2023-05-19T13:44:32.798Z,16.42
2023-05-19T13:46:59.800Z,16.47
2023-05-19T13:49:27.269Z,16.57
2023-05-19T13:51:57.504Z,16.65
2023-05-19T13:54:24.513Z,16.55
2023-05-19T13:56:53.579Z,16.55
2023-05-19T13:59:21.280Z,16.75
2023-05-19T14:01:48.280Z,16.88
2023-05-19T14:04:18.562Z,16.79
2023-05-19T14:06:46.539Z,16.81
2023-05-19T14:09:13.495Z,16.73
2023-05-19T14:11:40.421Z,16.81
2023-05-19T14:14:12.625Z,17.15
2023-05-19T14:16:45.362Z,17.02
2023-05-19T14:19:13.352Z,16.83
2023-05-19T14:21:40.549Z,17.10
2023-05-19T14:24:07.620Z,17.29
2023-05-19T14:26:35.045Z,17.45
2023-05-19T14:29:04.698Z,17.29
2023-05-19T14:31:34.272Z,17.44
2023-05-19T14:34:02.833Z,17.09
2023-05-19T14:36:30.404Z,16.96
2023-05-19T14:38:57.357Z,17.27
2023-05-19T14:41:24.474Z,17.46
2023-05-19T14:43:51.608Z,17.59
2023-05-19T14:46:18.584Z,17.73
2023-05-19T14:48:46.761Z,17.65
2023-05-19T14:51:14.346Z,17.73
2023-05-19T14:53:41.259Z,17.54
2023-05-19T14:56:33.760Z,17.59
2023-05-19T14:59:00.628Z,17.84
2023-05-19T15:01:27.529Z,17.67
2023-05-19T15:04:04.859Z,17.93
2023-05-19T15:06:35.237Z,18.15
2023-05-19T15:09:27.085Z,18.25
2023-05-19T15:11:54.335Z,18.43
2023-05-19T15:14:22.402Z,18.56
2023-05-19T15:16:49.310Z,18.68
2023-05-19T15:19:17.955Z,18.60
2023-05-19T15:21:44.831Z,18.61
2023-05-19T15:24:11.867Z,18.59
2023-05-19T15:26:38.965Z,18.35
2023-05-19T15:29:56.959Z,18.42
2023-05-19T15:32:24.725Z,18.47
2023-05-19T15:34:53.444Z,18.59
2023-05-19T15:37:20.540Z,18.70
2023-05-19T15:39:47.439Z,18.76
2023-05-19T15:42:24.648Z,18.70
2023-05-19T15:44:52.704Z,18.73
2023-05-19T15:47:19.668Z,18.74
2023-05-19T15:49:46.834Z,18.82
2023-05-19T15:52:15.109Z,18.75
2023-05-19T15:54:42.005Z,18.75
2023-05-19T15:57:09.396Z,18.53
2023-05-19T15:59:36.336Z,18.33
2023-05-19T16:02:03.709Z,18.51
2023-05-19T16:04:30.925Z,18.59
2023-05-19T16:06:57.872Z,18.51
2023-05-19T16:09:26.369Z,18.64
2023-05-19T16:11:53.809Z,18.70
2023-05-19T16:14:46.548Z,18.74
2023-05-19T16:17:13.618Z,18.74
2023-05-19T16:19:41.104Z,18.78
2023-05-19T16:22:08.141Z,18.73
2023-05-19T16:24:37.501Z,18.50
2023-05-19T16:27:05.444Z,18.04
2023-05-19T16:29:32.359Z,17.90
2023-05-19T16:31:59.352Z,18.12
2023-05-19T16:34:27.489Z,18.34
2023-05-19T16:36:56.160Z,18.49
2023-05-19T16:39:24.839Z,18.58
2023-05-19T16:41:53.228Z,18.67
2023-05-19T16:44:20.885Z,18.65
2023-05-19T16:46:47.922Z,18.73
2023-05-19T16:49:14.879Z,18.80
2023-05-19T16:51:41.963Z,18.78
2023-05-19T16:54:09.084Z,18.85
2023-05-19T16:56:36.028Z,18.92
2023-05-19T16:59:04.348Z,18.97
2023-05-19T17:01:31.694Z,18.98
2023-05-19T17:03:58.770Z,18.98
2023-05-19T17:06:26.572Z,18.94
2023-05-19T17:08:53.583Z,18.94
2023-05-19T17:11:20.735Z,18.99
2023-05-19T17:13:48.051Z,19.00
2023-05-19T17:16:16.887Z,19.00
2023-05-19T17:18:45.044Z,19.00
2023-05-19T17:21:12.004Z,19.00
2023-05-19T17:23:38.970Z,19.01
2023-05-19T17:26:06.157Z,18.98
2023-05-19T17:28:33.434Z,18.97
2023-05-19T17:31:00.601Z,18.99
2023-05-19T17:33:29.363Z,18.99
2023-05-19T17:35:56.458Z,18.97
2023-05-19T17:38:23.545Z,18.95
2023-05-19T17:40:50.499Z,18.93
2023-05-19T17:43:17.889Z,18.88
2023-05-19T17:45:44.838Z,18.80
2023-05-19T17:48:11.932Z,18.74
2023-05-19T17:50:40.352Z,18.67
2023-05-19T17:53:08.367Z,18.60
2023-05-19T17:55:36.577Z,18.57
2023-05-19T17:58:04.189Z,18.45
2023-05-19T18:00:31.869Z,18.37
2023-05-19T18:02:59.788Z,18.33
2023-05-19T18:05:28.930Z,18.22
2023-05-19T18:08:00.057Z,18.21
2023-05-19T18:10:27.947Z,18.10
2023-05-19T18:12:54.986Z,18.04
2023-05-19T18:15:22.266Z,18.04
2023-05-19T18:17:49.517Z,17.95
2023-05-19T18:20:16.917Z,17.90
2023-05-19T18:22:44.056Z,17.81
2023-05-19T18:25:13.195Z,17.78
2023-05-19T18:27:40.127Z,17.73
2023-05-19T18:30:08.449Z,17.72
2023-05-19T18:32:36.111Z,17.68
2023-05-19T18:35:04.534Z,17.63
2023-05-19T18:37:31.568Z,17.58
2023-05-19T18:39:59.942Z,17.45
2023-05-19T18:42:29.488Z,17.40
2023-05-19T18:44:57.126Z,17.36
2023-05-19T18:47:24.118Z,17.29
2023-05-19T18:49:51.291Z,17.19
2023-05-19T18:52:20.809Z,17.06
2023-05-19T18:54:47.941Z,16.97
2023-05-19T18:57:15.278Z,16.91
2023-05-19T18:59:43.700Z,16.84
2023-05-19T19:02:10.824Z,16.73
2023-05-19T19:04:38.043Z,16.42
2023-05-19T19:07:05.830Z,16.20
2023-05-19T19:09:35.271Z,16.15
2023-05-19T19:12:02.932Z,16.11
2023-05-19T19:14:29.867Z,16.00
2023-05-19T19:16:58.360Z,15.87
2023-05-19T19:19:28.533Z,15.76
2023-05-19T19:21:55.708Z,15.57
2023-05-19T19:24:22.681Z,15.47
2023-05-19T19:26:50.321Z,15.43
2023-05-19T19:29:17.541Z,15.39
2023-05-19T19:31:44.568Z,15.34
2023-05-19T19:34:16.244Z,15.28
2023-05-19T19:36:45.816Z,15.22
2023-05-19T19:39:14.652Z,15.15
2023-05-19T19:41:41.859Z,15.18
2023-05-19T19:44:09.018Z,15.20
2023-05-19T19:46:39.468Z,15.15
2023-05-19T19:49:07.713Z,15.15
2023-05-19T19:51:39.165Z,15.15
2023-05-19T19:54:06.310Z,15.06
2023-05-19T19:56:33.343Z,14.98
2023-05-19T19:59:00.696Z,14.81
2023-05-19T20:01:28.138Z,14.71
2023-05-19T20:03:56.340Z,14.67
2023-05-19T20:06:23.670Z,14.56
2023-05-19T20:08:52.027Z,14.58
2023-05-19T20:11:41.785Z,14.50
2023-05-19T20:14:59.426Z,14.47
2023-05-19T20:17:26.992Z,14.46
2023-05-19T20:19:55.188Z,14.44
2023-05-19T20:22:22.288Z,14.30
2023-05-19T20:24:51.309Z,14.31
2023-05-19T20:27:18.910Z,14.25
2023-05-19T20:29:45.778Z,14.21
2023-05-19T20:32:13.535Z,14.26
2023-05-19T20:34:40.472Z,14.37
2023-05-19T20:37:07.548Z,14.44
2023-05-19T20:39:34.762Z,14.51
2023-05-19T20:42:03.104Z,14.58
2023-05-19T20:44:30.187Z,14.60
2023-05-19T20:46:57.349Z,14.63
2023-05-19T20:49:28.616Z,14.60
2023-05-19T20:51:56.781Z,14.58
2023-05-19T20:54:23.964Z,14.60
2023-05-19T20:56:53.132Z,14.59
2023-05-19T20:59:21.482Z,14.60
2023-05-19T21:01:48.948Z,14.68
2023-05-19T21:04:16.017Z,14.73
2023-05-19T21:06:42.937Z,14.81
2023-05-19T21:09:10.181Z,14.87
2023-05-19T21:11:38.209Z,14.94
2023-05-19T21:14:07.567Z,14.98
2023-05-19T21:16:36.044Z,14.98
2023-05-19T21:19:02.951Z,14.95
2023-05-19T21:21:29.886Z,14.92
2023-05-19T21:23:56.833Z,14.95
2023-05-19T21:26:23.965Z,14.94
2023-05-19T21:28:51.131Z,14.91
2023-05-19T21:31:18.194Z,14.88
2023-05-19T21:33:46.624Z,14.92
2023-05-19T21:36:13.488Z,14.97
2023-05-19T21:38:40.624Z,14.98
2023-05-19T21:41:07.557Z,15.01
2023-05-19T21:43:34.752Z,15.04
2023-05-19T21:46:01.694Z,15.08
2023-05-19T21:48:28.970Z,15.10
2023-05-19T21:50:57.288Z,15.11
2023-05-19T21:53:24.628Z,15.10
2023-05-19T21:55:51.535Z,15.09
2023-05-19T21:58:18.483Z,15.08
2023-05-19T22:00:49.088Z,15.12
2023-05-19T22:03:16.141Z,15.13
2023-05-19T22:05:48.400Z,15.17
2023-05-19T22:08:18.939Z,15.19
2023-05-19T22:10:49.906Z,15.20
2023-05-19T22:13:17.221Z,15.19
2023-05-19T22:15:44.377Z,15.21
2023-05-19T22:18:11.388Z,15.20
2023-05-19T22:20:38.368Z,15.18
2023-05-19T22:23:05.611Z,15.13
2023-05-19T22:25:33.978Z,15.12
2023-05-19T22:28:04.413Z,15.12
2023-05-19T22:30:31.884Z,15.08
2023-05-19T22:32:58.974Z,15.06
2023-05-19T22:35:26.224Z,15.05
2023-05-19T22:37:53.157Z,14.99
2023-05-19T22:40:20.002Z,14.87
2023-05-19T22:42:48.246Z,14.87
2023-05-19T22:45:42.042Z,14.90
2023-05-19T22:48:09.475Z,14.90
2023-05-19T22:50:36.550Z,14.88
2023-05-19T22:53:03.528Z,14.83
2023-05-19T22:55:30.429Z,14.83
2023-05-19T22:57:59.120Z,14.83
2023-05-19T23:00:26.105Z,14.83
2023-05-19T23:02:56.018Z,14.78
2023-05-19T23:05:23.325Z,14.77
2023-05-19T23:07:50.561Z,14.76
2023-05-19T23:10:42.943Z,14.75
2023-05-19T23:13:11.190Z,14.63
2023-05-19T23:15:38.375Z,14.50
2023-05-19T23:18:34.195Z,14.43
2023-05-19T23:21:01.098Z,14.32
2023-05-19T23:23:29.218Z,14.34
2023-05-19T23:26:27.892Z,14.34
2023-05-19T23:28:57.084Z,14.30
2023-05-19T23:31:24.175Z,14.21
2023-05-19T23:33:51.215Z,14.05
2023-05-19T23:36:18.322Z,13.87
2023-05-19T23:38:45.305Z,13.80
2023-05-19T23:41:12.244Z,13.72
2023-05-19T23:43:39.459Z,13.67
2023-05-19T23:46:08.206Z,13.61
2023-05-19T23:48:35.152Z,13.62
2023-05-19T23:51:02.199Z,13.64
2023-05-19T23:53:29.646Z,13.65
2023-05-19T23:55:58.666Z,13.65
2023-05-19T23:58:25.846Z,13.64
